sensor_id;sensor_type;location;lat;lon;timestamp;temperature;humidity
42833;DHT22;64089;51.478;5.692;2023-11-19T00:00:19;13.60;99.90
42833;DHT22;64089;51.478;5.692;2023-11-19T00:02:45;13.60;99.90
42833;DHT22;64089;51.478;5.692;2023-11-19T00:05:12;13.60;99.90
42833;DHT22;64089;51.478;5.692;2023-11-19T00:07:39;13.60;99.90
42833;DHT22;64089;51.478;5.692;2023-11-19T00:10:12;13.60;99.90
42833;DHT22;64089;51.478;5.692;2023-11-19T00:12:42;13.60;99.90
42833;DHT22;64089;51.478;5.692;2023-11-19T00:15:10;13.60;99.90
42833;DHT22;64089;51.478;5.692;2023-11-19T00:17:40;13.60;99.90
42833;DHT22;64089;51.478;5.692;2023-11-19T00:20:10;13.60;99.90
42833;DHT22;64089;51.478;5.692;2023-11-19T00:22:36;13.60;99.90
42833;DHT22;64089;51.478;5.692;2023-11-19T00:25:01;13.60;99.90
42833;DHT22;64089;51.478;5.692;2023-11-19T00:27:28;13.70;99.90
42833;DHT22;64089;51.478;5.692;2023-11-19T00:29:54;13.60;99.90
42833;DHT22;64089;51.478;5.692;2023-11-19T00:32:19;13.70;99.90
42833;DHT22;64089;51.478;5.692;2023-11-19T00:34:45;13.70;99.90
42833;DHT22;64089;51.478;5.692;2023-11-19T00:37:13;13.70;99.90
42833;DHT22;64089;51.478;5.692;2023-11-19T00:39:39;13.70;99.90
42833;DHT22;64089;51.478;5.692;2023-11-19T00:42:04;13.70;99.90
42833;DHT22;64089;51.478;5.692;2023-11-19T00:44:30;13.70;99.90
42833;DHT22;64089;51.478;5.692;2023-11-19T00:46:56;13.70;99.90
42833;DHT22;64089;51.478;5.692;2023-11-19T00:49:22;13.70;99.90
42833;DHT22;64089;51.478;5.692;2023-11-19T00:51:51;13.80;99.90
42833;DHT22;64089;51.478;5.692;2023-11-19T00:54:16;13.70;99.90
42833;DHT22;64089;51.478;5.692;2023-11-19T00:56:42;13.80;99.90
42833;DHT22;64089;51.478;5.692;2023-11-19T00:59:07;13.80;99.90
42833;DHT22;64089;51.478;5.692;2023-11-19T01:01:33;13.70;99.90
42833;DHT22;64089;51.478;5.692;2023-11-19T01:03:59;13.80;99.90
42833;DHT22;64089;51.478;5.692;2023-11-19T01:08:54;13.80;99.90
42833;DHT22;64089;51.478;5.692;2023-11-19T01:11:21;13.80;99.90
42833;DHT22;64089;51.478;5.692;2023-11-19T01:13:47;13.80;99.90
42833;DHT22;64089;51.478;5.692;2023-11-19T01:16:12;13.80;99.90
42833;DHT22;64089;51.478;5.692;2023-11-19T01:18:38;13.80;99.90
42833;DHT22;64089;51.478;5.692;2023-11-19T01:21:05;13.70;99.90
42833;DHT22;64089;51.478;5.692;2023-11-19T01:23:31;13.80;99.90
42833;DHT22;64089;51.478;5.692;2023-11-19T01:25:58;13.80;99.90
42833;DHT22;64089;51.478;5.692;2023-11-19T01:28:23;13.80;99.90
42833;DHT22;64089;51.478;5.692;2023-11-19T01:30:52;13.70;99.90
42833;DHT22;64089;51.478;5.692;2023-11-19T01:33:18;13.70;99.90
42833;DHT22;64089;51.478;5.692;2023-11-19T01:35:44;13.70;99.90
42833;DHT22;64089;51.478;5.692;2023-11-19T01:38:10;13.70;99.90
42833;DHT22;64089;51.478;5.692;2023-11-19T01:40:36;13.70;99.90
42833;DHT22;64089;51.478;5.692;2023-11-19T01:43:02;13.70;99.90
42833;DHT22;64089;51.478;5.692;2023-11-19T01:45:29;13.70;99.90
42833;DHT22;64089;51.478;5.692;2023-11-19T01:48:00;13.70;99.90
42833;DHT22;64089;51.478;5.692;2023-11-19T01:50:28;13.60;99.90
42833;DHT22;64089;51.478;5.692;2023-11-19T01:52:54;13.70;99.90
42833;DHT22;64089;51.478;5.692;2023-11-19T01:55:21;13.70;99.90
42833;DHT22;64089;51.478;5.692;2023-11-19T01:57:48;13.70;99.90
42833;DHT22;64089;51.478;5.692;2023-11-19T02:00:15;13.70;99.90
42833;DHT22;64089;51.478;5.692;2023-11-19T02:02:42;13.70;99.90
42833;DHT22;64089;51.478;5.692;2023-11-19T02:05:09;13.70;99.90
42833;DHT22;64089;51.478;5.692;2023-11-19T02:07:35;13.70;99.90
42833;DHT22;64089;51.478;5.692;2023-11-19T02:10:01;13.70;99.90
42833;DHT22;64089;51.478;5.692;2023-11-19T02:12:28;13.70;99.90
42833;DHT22;64089;51.478;5.692;2023-11-19T02:14:54;13.60;99.90
42833;DHT22;64089;51.478;5.692;2023-11-19T02:17:30;13.70;99.90
42833;DHT22;64089;51.478;5.692;2023-11-19T02:20:00;13.70;99.90
42833;DHT22;64089;51.478;5.692;2023-11-19T02:22:25;13.60;99.90
42833;DHT22;64089;51.478;5.692;2023-11-19T02:24:59;13.60;99.90
42833;DHT22;64089;51.478;5.692;2023-11-19T02:30:12;13.60;99.90
42833;DHT22;64089;51.478;5.692;2023-11-19T02:32:42;13.50;99.90
42833;DHT22;64089;51.478;5.692;2023-11-19T02:35:08;13.40;99.90
42833;DHT22;64089;51.478;5.692;2023-11-19T02:37:38;13.40;99.90
42833;DHT22;64089;51.478;5.692;2023-11-19T02:40:04;13.40;99.90
42833;DHT22;64089;51.478;5.692;2023-11-19T02:42:34;13.30;99.90
42833;DHT22;64089;51.478;5.692;2023-11-19T02:44:59;13.40;99.90
42833;DHT22;64089;51.478;5.692;2023-11-19T02:47:25;13.20;99.90
42833;DHT22;64089;51.478;5.692;2023-11-19T02:49:51;13.30;99.90
42833;DHT22;64089;51.478;5.692;2023-11-19T02:52:18;13.30;99.90
42833;DHT22;64089;51.478;5.692;2023-11-19T02:54:44;13.30;99.90
42833;DHT22;64089;51.478;5.692;2023-11-19T02:57:10;13.20;99.90
42833;DHT22;64089;51.478;5.692;2023-11-19T02:59:39;13.30;99.90
42833;DHT22;64089;51.478;5.692;2023-11-19T03:02:07;13.40;99.90
42833;DHT22;64089;51.478;5.692;2023-11-19T03:04:33;13.30;99.90
42833;DHT22;64089;51.478;5.692;2023-11-19T03:06:59;13.20;99.90
42833;DHT22;64089;51.478;5.692;2023-11-19T03:09:24;13.20;99.90
42833;DHT22;64089;51.478;5.692;2023-11-19T03:11:50;13.20;99.90
42833;DHT22;64089;51.478;5.692;2023-11-19T03:14:16;13.10;99.90
42833;DHT22;64089;51.478;5.692;2023-11-19T03:16:45;13.00;99.90
42833;DHT22;64089;51.478;5.692;2023-11-19T03:19:11;13.00;99.90
42833;DHT22;64089;51.478;5.692;2023-11-19T03:21:37;12.90;99.90
42833;DHT22;64089;51.478;5.692;2023-11-19T03:24:03;12.90;99.90
42833;DHT22;64089;51.478;5.692;2023-11-19T03:26:29;13.00;99.90
42833;DHT22;64089;51.478;5.692;2023-11-19T03:28:55;12.90;99.90
42833;DHT22;64089;51.478;5.692;2023-11-19T03:31:22;12.90;99.90
42833;DHT22;64089;51.478;5.692;2023-11-19T03:33:48;12.90;99.90
42833;DHT22;64089;51.478;5.692;2023-11-19T03:36:14;13.00;99.90
42833;DHT22;64089;51.478;5.692;2023-11-19T03:38:39;13.00;99.90
42833;DHT22;64089;51.478;5.692;2023-11-19T03:41:14;12.90;99.90
42833;DHT22;64089;51.478;5.692;2023-11-19T03:43:40;13.00;99.90
42833;DHT22;64089;51.478;5.692;2023-11-19T03:46:19;13.00;99.90
42833;DHT22;64089;51.478;5.692;2023-11-19T03:48:46;13.00;99.90
42833;DHT22;64089;51.478;5.692;2023-11-19T03:51:12;13.10;99.90
42833;DHT22;64089;51.478;5.692;2023-11-19T03:53:45;13.10;99.90
42833;DHT22;64089;51.478;5.692;2023-11-19T03:56:11;13.00;99.90
42833;DHT22;64089;51.478;5.692;2023-11-19T03:58:37;13.10;99.90
42833;DHT22;64089;51.478;5.692;2023-11-19T04:01:04;13.00;99.90
42833;DHT22;64089;51.478;5.692;2023-11-19T04:03:33;13.00;99.90
42833;DHT22;64089;51.478;5.692;2023-11-19T04:05:58;12.90;99.90
42833;DHT22;64089;51.478;5.692;2023-11-19T04:08:24;12.90;99.90
42833;DHT22;64089;51.478;5.692;2023-11-19T04:10:50;12.90;99.90
42833;DHT22;64089;51.478;5.692;2023-11-19T04:13:15;12.80;99.90
42833;DHT22;64089;51.478;5.692;2023-11-19T04:15:41;12.80;99.90
42833;DHT22;64089;51.478;5.692;2023-11-19T04:18:06;12.80;99.90
42833;DHT22;64089;51.478;5.692;2023-11-19T04:20:32;12.70;99.90
42833;DHT22;64089;51.478;5.692;2023-11-19T04:22:58;12.70;99.90
42833;DHT22;64089;51.478;5.692;2023-11-19T04:25:26;12.70;99.90
42833;DHT22;64089;51.478;5.692;2023-11-19T04:27:51;12.70;99.90
42833;DHT22;64089;51.478;5.692;2023-11-19T04:30:17;12.70;99.90
42833;DHT22;64089;51.478;5.692;2023-11-19T04:32:43;12.70;99.90
42833;DHT22;64089;51.478;5.692;2023-11-19T04:35:09;12.80;99.90
42833;DHT22;64089;51.478;5.692;2023-11-19T04:37:35;12.90;99.90
42833;DHT22;64089;51.478;5.692;2023-11-19T04:40:01;12.90;99.90
42833;DHT22;64089;51.478;5.692;2023-11-19T04:42:27;13.00;99.90
42833;DHT22;64089;51.478;5.692;2023-11-19T04:44:52;13.00;99.90
42833;DHT22;64089;51.478;5.692;2023-11-19T04:47:18;13.10;99.90
42833;DHT22;64089;51.478;5.692;2023-11-19T04:49:43;13.10;99.90
42833;DHT22;64089;51.478;5.692;2023-11-19T04:52:09;13.00;99.90
42833;DHT22;64089;51.478;5.692;2023-11-19T04:54:35;12.90;99.90
42833;DHT22;64089;51.478;5.692;2023-11-19T04:57:00;13.00;99.90
42833;DHT22;64089;51.478;5.692;2023-11-19T04:59:26;12.90;99.90
42833;DHT22;64089;51.478;5.692;2023-11-19T05:01:53;12.90;99.90
42833;DHT22;64089;51.478;5.692;2023-11-19T05:04:18;13.00;99.90
42833;DHT22;64089;51.478;5.692;2023-11-19T05:06:44;12.90;99.90
42833;DHT22;64089;51.478;5.692;2023-11-19T05:09:10;12.80;99.90
42833;DHT22;64089;51.478;5.692;2023-11-19T05:11:38;12.70;99.90
42833;DHT22;64089;51.478;5.692;2023-11-19T05:14:05;12.70;99.90
42833;DHT22;64089;51.478;5.692;2023-11-19T05:16:31;12.70;99.90
42833;DHT22;64089;51.478;5.692;2023-11-19T05:18:57;12.80;99.90
42833;DHT22;64089;51.478;5.692;2023-11-19T05:21:22;12.80;99.90
42833;DHT22;64089;51.478;5.692;2023-11-19T05:23:49;12.80;99.90
42833;DHT22;64089;51.478;5.692;2023-11-19T05:26:19;12.80;99.90
42833;DHT22;64089;51.478;5.692;2023-11-19T05:28:45;12.70;99.90
42833;DHT22;64089;51.478;5.692;2023-11-19T05:31:11;12.70;99.90
42833;DHT22;64089;51.478;5.692;2023-11-19T05:33:36;12.70;99.90
42833;DHT22;64089;51.478;5.692;2023-11-19T05:36:02;12.60;99.90
42833;DHT22;64089;51.478;5.692;2023-11-19T05:38:29;12.70;99.90
42833;DHT22;64089;51.478;5.692;2023-11-19T05:40:55;12.70;99.90
42833;DHT22;64089;51.478;5.692;2023-11-19T05:43:21;12.70;99.90
42833;DHT22;64089;51.478;5.692;2023-11-19T05:45:47;12.70;99.90
42833;DHT22;64089;51.478;5.692;2023-11-19T05:48:13;12.70;99.90
42833;DHT22;64089;51.478;5.692;2023-11-19T05:50:39;12.70;99.90
42833;DHT22;64089;51.478;5.692;2023-11-19T05:53:08;12.60;99.90
42833;DHT22;64089;51.478;5.692;2023-11-19T05:55:38;12.50;99.90
42833;DHT22;64089;51.478;5.692;2023-11-19T05:58:14;12.50;99.90
42833;DHT22;64089;51.478;5.692;2023-11-19T06:00:40;12.50;99.90
42833;DHT22;64089;51.478;5.692;2023-11-19T06:03:07;12.60;99.90
42833;DHT22;64089;51.478;5.692;2023-11-19T06:05:32;12.50;99.90
42833;DHT22;64089;51.478;5.692;2023-11-19T06:07:58;12.50;99.90
42833;DHT22;64089;51.478;5.692;2023-11-19T06:10:24;12.60;99.90
42833;DHT22;64089;51.478;5.692;2023-11-19T06:12:59;12.50;99.90
42833;DHT22;64089;51.478;5.692;2023-11-19T06:15:25;12.40;99.90
42833;DHT22;64089;51.478;5.692;2023-11-19T06:17:52;12.40;99.90
42833;DHT22;64089;51.478;5.692;2023-11-19T06:20:17;12.40;99.90
42833;DHT22;64089;51.478;5.692;2023-11-19T06:22:45;12.30;99.90
42833;DHT22;64089;51.478;5.692;2023-11-19T06:25:11;12.30;99.90
42833;DHT22;64089;51.478;5.692;2023-11-19T06:27:37;12.30;99.90
42833;DHT22;64089;51.478;5.692;2023-11-19T06:30:03;12.30;99.90
42833;DHT22;64089;51.478;5.692;2023-11-19T06:32:29;12.30;99.90
42833;DHT22;64089;51.478;5.692;2023-11-19T06:34:55;12.30;99.90
42833;DHT22;64089;51.478;5.692;2023-11-19T06:37:20;12.20;99.90
42833;DHT22;64089;51.478;5.692;2023-11-19T06:39:46;12.20;99.90
42833;DHT22;64089;51.478;5.692;2023-11-19T06:42:11;12.20;99.90
42833;DHT22;64089;51.478;5.692;2023-11-19T06:44:37;12.10;99.90
42833;DHT22;64089;51.478;5.692;2023-11-19T06:47:03;12.20;99.90
42833;DHT22;64089;51.478;5.692;2023-11-19T06:49:28;12.10;99.90
42833;DHT22;64089;51.478;5.692;2023-11-19T06:51:54;12.00;99.90
42833;DHT22;64089;51.478;5.692;2023-11-19T06:54:19;12.00;99.90
42833;DHT22;64089;51.478;5.692;2023-11-19T06:56:45;12.00;99.90
42833;DHT22;64089;51.478;5.692;2023-11-19T06:59:11;12.00;99.90
42833;DHT22;64089;51.478;5.692;2023-11-19T07:01:37;12.00;99.90
42833;DHT22;64089;51.478;5.692;2023-11-19T07:04:03;12.00;99.90
42833;DHT22;64089;51.478;5.692;2023-11-19T07:06:34;12.00;99.90
42833;DHT22;64089;51.478;5.692;2023-11-19T07:09:00;11.90;99.90
42833;DHT22;64089;51.478;5.692;2023-11-19T07:11:40;11.90;99.90
42833;DHT22;64089;51.478;5.692;2023-11-19T07:14:07;11.90;99.90
42833;DHT22;64089;51.478;5.692;2023-11-19T07:16:33;12.00;99.90
42833;DHT22;64089;51.478;5.692;2023-11-19T07:19:03;11.90;99.90
42833;DHT22;64089;51.478;5.692;2023-11-19T07:21:29;12.00;99.90
42833;DHT22;64089;51.478;5.692;2023-11-19T07:23:55;12.00;99.90
42833;DHT22;64089;51.478;5.692;2023-11-19T07:26:21;12.00;99.90
42833;DHT22;64089;51.478;5.692;2023-11-19T07:28:48;12.00;99.90
42833;DHT22;64089;51.478;5.692;2023-11-19T07:31:13;12.00;99.90
42833;DHT22;64089;51.478;5.692;2023-11-19T07:33:39;11.90;99.90
42833;DHT22;64089;51.478;5.692;2023-11-19T07:36:08;12.00;99.90
42833;DHT22;64089;51.478;5.692;2023-11-19T07:38:34;12.00;99.90
42833;DHT22;64089;51.478;5.692;2023-11-19T07:41:00;12.00;99.90
42833;DHT22;64089;51.478;5.692;2023-11-19T07:43:26;12.00;99.90
42833;DHT22;64089;51.478;5.692;2023-11-19T07:45:52;12.10;99.90
42833;DHT22;64089;51.478;5.692;2023-11-19T07:48:17;12.10;99.90
42833;DHT22;64089;51.478;5.692;2023-11-19T07:50:54;12.10;99.90
42833;DHT22;64089;51.478;5.692;2023-11-19T07:53:20;12.10;99.90
42833;DHT22;64089;51.478;5.692;2023-11-19T07:55:46;12.00;99.90
42833;DHT22;64089;51.478;5.692;2023-11-19T07:58:12;12.00;99.90
42833;DHT22;64089;51.478;5.692;2023-11-19T08:00:38;12.10;99.90
42833;DHT22;64089;51.478;5.692;2023-11-19T08:03:06;12.10;99.90
42833;DHT22;64089;51.478;5.692;2023-11-19T08:05:32;12.10;99.90
42833;DHT22;64089;51.478;5.692;2023-11-19T08:07:57;12.10;99.90
42833;DHT22;64089;51.478;5.692;2023-11-19T08:10:23;12.10;99.90
42833;DHT22;64089;51.478;5.692;2023-11-19T08:12:49;12.20;99.90
42833;DHT22;64089;51.478;5.692;2023-11-19T08:15:15;12.20;99.90
42833;DHT22;64089;51.478;5.692;2023-11-19T08:17:41;12.20;99.90
42833;DHT22;64089;51.478;5.692;2023-11-19T08:20:08;12.30;99.90
42833;DHT22;64089;51.478;5.692;2023-11-19T08:22:36;12.30;99.90
42833;DHT22;64089;51.478;5.692;2023-11-19T08:25:04;12.30;99.90
42833;DHT22;64089;51.478;5.692;2023-11-19T08:27:29;12.40;99.90
42833;DHT22;64089;51.478;5.692;2023-11-19T08:29:55;12.40;99.90
42833;DHT22;64089;51.478;5.692;2023-11-19T08:32:22;12.40;99.90
42833;DHT22;64089;51.478;5.692;2023-11-19T08:34:48;12.40;99.90
42833;DHT22;64089;51.478;5.692;2023-11-19T08:37:14;12.40;99.90
42833;DHT22;64089;51.478;5.692;2023-11-19T08:39:39;12.40;99.90
42833;DHT22;64089;51.478;5.692;2023-11-19T08:42:09;12.50;99.90
42833;DHT22;64089;51.478;5.692;2023-11-19T08:44:35;12.50;99.90
42833;DHT22;64089;51.478;5.692;2023-11-19T08:47:00;12.50;99.90
42833;DHT22;64089;51.478;5.692;2023-11-19T08:49:26;12.60;99.90
42833;DHT22;64089;51.478;5.692;2023-11-19T08:51:51;12.60;99.90
42833;DHT22;64089;51.478;5.692;2023-11-19T08:54:17;12.70;99.90
42833;DHT22;64089;51.478;5.692;2023-11-19T08:56:43;12.70;99.90
42833;DHT22;64089;51.478;5.692;2023-11-19T08:59:08;12.80;99.90
42833;DHT22;64089;51.478;5.692;2023-11-19T09:01:34;12.90;99.90
42833;DHT22;64089;51.478;5.692;2023-11-19T09:03:59;12.90;99.90
42833;DHT22;64089;51.478;5.692;2023-11-19T09:06:25;12.90;99.90
42833;DHT22;64089;51.478;5.692;2023-11-19T09:08:51;13.00;99.90
42833;DHT22;64089;51.478;5.692;2023-11-19T09:11:17;13.10;99.90
42833;DHT22;64089;51.478;5.692;2023-11-19T09:13:42;13.10;99.90
42833;DHT22;64089;51.478;5.692;2023-11-19T09:16:11;13.10;99.90
42833;DHT22;64089;51.478;5.692;2023-11-19T09:18:37;13.20;99.90
42833;DHT22;64089;51.478;5.692;2023-11-19T09:21:03;13.30;99.90
42833;DHT22;64089;51.478;5.692;2023-11-19T09:23:28;13.20;99.90
42833;DHT22;64089;51.478;5.692;2023-11-19T09:25:58;13.20;99.90
42833;DHT22;64089;51.478;5.692;2023-11-19T09:28:23;13.10;99.90
42833;DHT22;64089;51.478;5.692;2023-11-19T09:30:49;13.10;99.90
42833;DHT22;64089;51.478;5.692;2023-11-19T09:33:14;13.20;99.90
42833;DHT22;64089;51.478;5.692;2023-11-19T09:35:40;13.20;99.90
42833;DHT22;64089;51.478;5.692;2023-11-19T09:38:06;13.20;99.90
42833;DHT22;64089;51.478;5.692;2023-11-19T09:40:32;13.30;99.90
42833;DHT22;64089;51.478;5.692;2023-11-19T09:42:57;13.40;99.90
42833;DHT22;64089;51.478;5.692;2023-11-19T09:45:27;13.40;99.90
42833;DHT22;64089;51.478;5.692;2023-11-19T09:47:53;13.30;99.90
42833;DHT22;64089;51.478;5.692;2023-11-19T09:50:20;13.30;99.90
42833;DHT22;64089;51.478;5.692;2023-11-19T09:52:47;13.30;99.90
42833;DHT22;64089;51.478;5.692;2023-11-19T09:55:13;13.30;99.90
42833;DHT22;64089;51.478;5.692;2023-11-19T09:57:39;13.50;99.90
42833;DHT22;64089;51.478;5.692;2023-11-19T10:00:07;13.50;99.90
42833;DHT22;64089;51.478;5.692;2023-11-19T10:02:35;13.60;99.90
42833;DHT22;64089;51.478;5.692;2023-11-19T10:05:05;13.80;99.90
42833;DHT22;64089;51.478;5.692;2023-11-19T10:07:32;13.80;99.90
42833;DHT22;64089;51.478;5.692;2023-11-19T10:10:04;13.90;99.90
42833;DHT22;64089;51.478;5.692;2023-11-19T10:12:30;14.10;99.90
42833;DHT22;64089;51.478;5.692;2023-11-19T10:14:59;14.30;99.90
42833;DHT22;64089;51.478;5.692;2023-11-19T10:17:32;14.40;99.90
42833;DHT22;64089;51.478;5.692;2023-11-19T10:19:58;14.40;99.90
42833;DHT22;64089;51.478;5.692;2023-11-19T10:22:24;14.30;99.90
42833;DHT22;64089;51.478;5.692;2023-11-19T10:24:52;14.30;99.90
42833;DHT22;64089;51.478;5.692;2023-11-19T10:27:18;14.30;99.90
42833;DHT22;64089;51.478;5.692;2023-11-19T10:29:47;14.20;99.90
42833;DHT22;64089;51.478;5.692;2023-11-19T10:32:13;14.10;99.90
42833;DHT22;64089;51.478;5.692;2023-11-19T10:34:40;14.10;99.90
42833;DHT22;64089;51.478;5.692;2023-11-19T10:37:07;14.10;99.90
42833;DHT22;64089;51.478;5.692;2023-11-19T10:39:59;14.10;99.90
42833;DHT22;64089;51.478;5.692;2023-11-19T10:42:24;14.20;99.90
42833;DHT22;64089;51.478;5.692;2023-11-19T10:44:50;14.30;99.90
42833;DHT22;64089;51.478;5.692;2023-11-19T10:47:19;14.30;99.90
42833;DHT22;64089;51.478;5.692;2023-11-19T10:49:45;14.20;99.90
42833;DHT22;64089;51.478;5.692;2023-11-19T10:52:20;14.20;99.90
42833;DHT22;64089;51.478;5.692;2023-11-19T10:54:49;14.30;99.90
42833;DHT22;64089;51.478;5.692;2023-11-19T10:57:20;14.30;99.90
42833;DHT22;64089;51.478;5.692;2023-11-19T10:59:47;14.30;99.90
42833;DHT22;64089;51.478;5.692;2023-11-19T11:02:18;14.20;99.90
42833;DHT22;64089;51.478;5.692;2023-11-19T11:04:47;14.30;99.90
42833;DHT22;64089;51.478;5.692;2023-11-19T11:07:15;14.30;99.90
42833;DHT22;64089;51.478;5.692;2023-11-19T11:09:44;14.30;99.90
42833;DHT22;64089;51.478;5.692;2023-11-19T11:12:12;14.30;99.90
42833;DHT22;64089;51.478;5.692;2023-11-19T11:14:38;14.30;99.90
42833;DHT22;64089;51.478;5.692;2023-11-19T11:17:06;14.20;99.90
42833;DHT22;64089;51.478;5.692;2023-11-19T11:19:34;14.20;99.90
42833;DHT22;64089;51.478;5.692;2023-11-19T11:22:00;14.20;99.90
42833;DHT22;64089;51.478;5.692;2023-11-19T11:24:58;14.20;99.90
42833;DHT22;64089;51.478;5.692;2023-11-19T11:28:06;14.30;99.90
42833;DHT22;64089;51.478;5.692;2023-11-19T11:30:31;14.30;99.90
42833;DHT22;64089;51.478;5.692;2023-11-19T11:33:31;14.30;99.90
42833;DHT22;64089;51.478;5.692;2023-11-19T11:38:37;14.10;99.90
42833;DHT22;64089;51.478;5.692;2023-11-19T11:41:27;14.00;99.90
42833;DHT22;64089;51.478;5.692;2023-11-19T11:43:53;13.90;99.90
42833;DHT22;64089;51.478;5.692;2023-11-19T11:49:02;13.80;99.90
42833;DHT22;64089;51.478;5.692;2023-11-19T11:54:25;13.80;99.90
42833;DHT22;64089;51.478;5.692;2023-11-19T11:57:12;13.60;99.90
42833;DHT22;64089;51.478;5.692;2023-11-19T12:02:12;13.50;99.90
42833;DHT22;64089;51.478;5.692;2023-11-19T12:04:39;13.50;99.90
42833;DHT22;64089;51.478;5.692;2023-11-19T12:07:16;13.50;99.90
42833;DHT22;64089;51.478;5.692;2023-11-19T12:09:43;13.60;99.90
42833;DHT22;64089;51.478;5.692;2023-11-19T12:12:22;13.60;99.90
42833;DHT22;64089;51.478;5.692;2023-11-19T12:15:07;13.80;99.90
42833;DHT22;64089;51.478;5.692;2023-11-19T12:20:07;14.00;99.90
42833;DHT22;64089;51.478;5.692;2023-11-19T12:22:41;14.00;99.90
42833;DHT22;64089;51.478;5.692;2023-11-19T12:25:08;14.10;99.90
42833;DHT22;64089;51.478;5.692;2023-11-19T12:27:35;14.10;99.90
42833;DHT22;64089;51.478;5.692;2023-11-19T12:30:02;14.10;99.90
42833;DHT22;64089;51.478;5.692;2023-11-19T12:32:45;14.10;99.90
42833;DHT22;64089;51.478;5.692;2023-11-19T12:35:11;14.10;99.90
42833;DHT22;64089;51.478;5.692;2023-11-19T12:37:41;14.20;99.90
42833;DHT22;64089;51.478;5.692;2023-11-19T12:40:15;14.20;99.90
42833;DHT22;64089;51.478;5.692;2023-11-19T12:42:45;14.30;99.90
42833;DHT22;64089;51.478;5.692;2023-11-19T12:45:12;14.40;99.90
42833;DHT22;64089;51.478;5.692;2023-11-19T12:47:38;14.40;99.90
42833;DHT22;64089;51.478;5.692;2023-11-19T12:50:05;14.40;99.90
42833;DHT22;64089;51.478;5.692;2023-11-19T12:52:32;14.40;99.90
42833;DHT22;64089;51.478;5.692;2023-11-19T12:54:58;14.40;99.90
42833;DHT22;64089;51.478;5.692;2023-11-19T12:57:41;14.40;99.90
42833;DHT22;64089;51.478;5.692;2023-11-19T13:00:17;14.30;99.90
42833;DHT22;64089;51.478;5.692;2023-11-19T13:02:49;14.30;99.90
42833;DHT22;64089;51.478;5.692;2023-11-19T13:05:33;14.30;99.90
42833;DHT22;64089;51.478;5.692;2023-11-19T13:10:28;14.20;99.90
42833;DHT22;64089;51.478;5.692;2023-11-19T13:13:07;14.10;99.90
42833;DHT22;64089;51.478;5.692;2023-11-19T13:15:34;14.10;99.90
42833;DHT22;64089;51.478;5.692;2023-11-19T13:18:00;14.10;99.90
42833;DHT22;64089;51.478;5.692;2023-11-19T13:20:26;14.10;99.90
42833;DHT22;64089;51.478;5.692;2023-11-19T13:25:24;13.80;99.90
42833;DHT22;64089;51.478;5.692;2023-11-19T13:27:49;13.70;99.90
42833;DHT22;64089;51.478;5.692;2023-11-19T13:30:15;13.50;99.90
42833;DHT22;64089;51.478;5.692;2023-11-19T13:32:41;13.40;99.90
42833;DHT22;64089;51.478;5.692;2023-11-19T13:35:09;13.30;99.90
42833;DHT22;64089;51.478;5.692;2023-11-19T13:37:34;13.40;99.90
42833;DHT22;64089;51.478;5.692;2023-11-19T13:40:00;13.40;99.90
42833;DHT22;64089;51.478;5.692;2023-11-19T13:42:26;13.60;99.90
42833;DHT22;64089;51.478;5.692;2023-11-19T13:44:52;13.70;99.90
42833;DHT22;64089;51.478;5.692;2023-11-19T13:47:18;13.60;99.90
42833;DHT22;64089;51.478;5.692;2023-11-19T13:49:44;13.70;99.90
42833;DHT22;64089;51.478;5.692;2023-11-19T13:52:10;13.60;99.90
42833;DHT22;64089;51.478;5.692;2023-11-19T13:54:36;13.60;99.90
42833;DHT22;64089;51.478;5.692;2023-11-19T13:57:03;13.60;99.90
42833;DHT22;64089;51.478;5.692;2023-11-19T13:59:32;13.50;99.90
42833;DHT22;64089;51.478;5.692;2023-11-19T14:01:58;13.40;99.90
42833;DHT22;64089;51.478;5.692;2023-11-19T14:04:24;13.40;99.90
42833;DHT22;64089;51.478;5.692;2023-11-19T14:06:50;13.40;99.90
42833;DHT22;64089;51.478;5.692;2023-11-19T14:09:16;13.50;99.90
42833;DHT22;64089;51.478;5.692;2023-11-19T14:11:42;13.60;99.90
42833;DHT22;64089;51.478;5.692;2023-11-19T14:14:08;13.70;99.90
42833;DHT22;64089;51.478;5.692;2023-11-19T14:16:34;13.70;99.90
42833;DHT22;64089;51.478;5.692;2023-11-19T14:19:00;13.60;99.90
42833;DHT22;64089;51.478;5.692;2023-11-19T14:21:25;13.50;99.90
42833;DHT22;64089;51.478;5.692;2023-11-19T14:23:52;13.60;99.90
42833;DHT22;64089;51.478;5.692;2023-11-19T14:26:18;13.60;99.90
42833;DHT22;64089;51.478;5.692;2023-11-19T14:28:43;13.50;99.90
42833;DHT22;64089;51.478;5.692;2023-11-19T14:31:09;13.50;99.90
42833;DHT22;64089;51.478;5.692;2023-11-19T14:33:34;13.50;99.90
42833;DHT22;64089;51.478;5.692;2023-11-19T14:36:01;13.50;99.90
42833;DHT22;64089;51.478;5.692;2023-11-19T14:38:27;13.50;99.90
42833;DHT22;64089;51.478;5.692;2023-11-19T14:40:53;13.40;99.90
42833;DHT22;64089;51.478;5.692;2023-11-19T14:43:20;13.30;99.90
42833;DHT22;64089;51.478;5.692;2023-11-19T14:45:45;13.20;99.90
42833;DHT22;64089;51.478;5.692;2023-11-19T14:48:11;13.20;99.90
42833;DHT22;64089;51.478;5.692;2023-11-19T14:50:36;13.20;99.90
42833;DHT22;64089;51.478;5.692;2023-11-19T14:53:02;13.10;99.90
42833;DHT22;64089;51.478;5.692;2023-11-19T14:55:28;13.10;99.90
42833;DHT22;64089;51.478;5.692;2023-11-19T14:57:54;13.10;99.90
42833;DHT22;64089;51.478;5.692;2023-11-19T15:00:19;13.00;99.90
42833;DHT22;64089;51.478;5.692;2023-11-19T15:02:46;13.00;99.90
42833;DHT22;64089;51.478;5.692;2023-11-19T15:05:12;13.00;99.90
42833;DHT22;64089;51.478;5.692;2023-11-19T15:07:39;13.00;99.90
42833;DHT22;64089;51.478;5.692;2023-11-19T15:10:06;13.00;99.90
42833;DHT22;64089;51.478;5.692;2023-11-19T15:12:38;12.80;99.90
42833;DHT22;64089;51.478;5.692;2023-11-19T15:15:08;12.70;99.90
42833;DHT22;64089;51.478;5.692;2023-11-19T15:17:35;12.60;99.90
42833;DHT22;64089;51.478;5.692;2023-11-19T15:20:03;12.50;99.90
42833;DHT22;64089;51.478;5.692;2023-11-19T15:22:28;12.50;99.90
42833;DHT22;64089;51.478;5.692;2023-11-19T15:24:54;12.50;99.90
42833;DHT22;64089;51.478;5.692;2023-11-19T15:27:20;12.40;99.90
42833;DHT22;64089;51.478;5.692;2023-11-19T15:29:46;12.40;99.90
42833;DHT22;64089;51.478;5.692;2023-11-19T15:32:11;12.30;99.90
42833;DHT22;64089;51.478;5.692;2023-11-19T15:37:37;12.30;99.90
42833;DHT22;64089;51.478;5.692;2023-11-19T15:40:09;12.20;99.90
42833;DHT22;64089;51.478;5.692;2023-11-19T15:42:35;12.20;99.90
42833;DHT22;64089;51.478;5.692;2023-11-19T15:45:01;12.10;99.90
42833;DHT22;64089;51.478;5.692;2023-11-19T15:47:30;12.10;99.90
42833;DHT22;64089;51.478;5.692;2023-11-19T15:49:56;12.00;99.90
42833;DHT22;64089;51.478;5.692;2023-11-19T15:52:21;12.00;99.90
42833;DHT22;64089;51.478;5.692;2023-11-19T15:54:47;12.00;99.90
42833;DHT22;64089;51.478;5.692;2023-11-19T15:57:13;12.00;99.90